ADDS METAR Data INFO
IDs: Format: Raw Decoded Include TAF

Data at: 0606 UTC 25 Jun 2018

PAKF 250556Z AUTO 17013G20KT 10SM -RA BKN013 OVC023 08/06 A2983 RMK AO2 SLP102 P0000 60000 T00780061 10094 20078 58021
PAKF 250537Z AUTO 17012G16KT 10SM -RA BKN010 OVC015 08/07 A2984 RMK AO2 CIG 007V013 P0000
PAKF 250456Z AUTO 16010G15KT 10SM -RA OVC008 08/07 A2986 RMK AO2 RAB43 CIG 007V011 SLP111 P0000 T00780067
PAKF 250429Z AUTO 16011G18KT 10SM OVC010 08/06 A2987 RMK AO2 CIG 009V013
PAKF 250356Z AUTO 17010G16KT 140V220 10SM OVC008 08/07 A2988 RMK AO2 CIG 006V010 SLP119 T00780067
PAKF 250347Z AUTO 18008G18KT 140V210 8SM OVC008 08/07 A2988 RMK AO2 CIG 006V013
PAKF 250256Z AUTO 18010G15KT 10SM OVC010 08/07 A2990 RMK AO2 RAE34 CIG 007V014 SLP124 P0000 60000 T00830067 58022
PAKF 250229Z AUTO 18010G17KT 10SM -RA OVC008 08/07 A2991 RMK AO2 CIG 007V013 P0000
PAKF 250211Z AUTO 18010G17KT 8SM -RA OVC010 08/07 A2992 RMK AO2 CIG 007V013 P0000
PAKF 250156Z AUTO 19013G18KT 10SM -RA OVC008 08/07 A2992 RMK AO2 CIG 004V013 SLP132 P0000 T00830072
PAKF 250056Z AUTO 16010G16KT 10SM -RA OVC008 09/07 A2994 RMK AO2 CIG 007V011 SLP138 P0000 T00890072
PAKF 242356Z AUTO 15009KT 10SM -RA OVC012 08/07 A2996 RMK AO2 RAB38 SLP145 P0000 60000 T00830067 10100 20078 58015
PAKF 242306Z AUTO 19008G14KT 10SM OVC014 09/06 A2997 RMK AO2
PAKF 242256Z AUTO 19007KT 10SM BKN016 OVC022 10/06 A2998 RMK AO2 RAE13 SLP151 P0000 T01000061
PAKF 242156Z AUTO 16010G16KT 6SM -RA BR OVC012 08/07 A2999 RMK AO2 RAB00E22B53 SLP157 P0000 T00830067
PAKF 242056Z AUTO 14009KT 10SM OVC010 08/07 A3000 RMK AO2 RAB28E53 SLP160 P0000 60000 T00830067 58009
PAKF 242025Z AUTO 14012KT 10SM BKN013 BKN018 09/07 A3001 RMK AO2
PAKF 241956Z AUTO 15011KT 10SM FEW011 BKN060 OVC090 09/07 A3002 RMK AO2 RAB02E55 SLP164 P0000 T00890067
PAKF 241856Z AUTO 16011KT 10SM OVC080 08/06 A3002 RMK AO2 RAB39E50 SLP166 P0000 T00830056
PAKF 241811Z AUTO 16010KT 10SM FEW015 SCT021 OVC100 08/06 A3003 RMK AO2
PAKF 241756Z AUTO 17009KT 10SM BKN017 BKN023 OVC100 08/06 A3003 RMK AO2 SLP169 T00780061 10083 20072 57007
PAKF 241656Z AUTO 18006KT 10SM BKN016 OVC023 08/05 A3004 RMK AO2 SLP172 T00780050
PAKF 241556Z AUTO 20008KT 10SM BKN016 OVC024 08/05 A3004 RMK AO2 SLP172 T00780050
PAKF 241511Z AUTO 20010KT 10SM BKN016 OVC024 08/05 A3004 RMK AO2
PAKF 241456Z AUTO 18013G18KT 10SM FEW009 BKN014 OVC024 07/06 A3005 RMK AO2 SLP175 T00720056 56009
PAKF 241453Z AUTO 18011G15KT 10SM FEW009 BKN017 OVC024 07/06 A3005 RMK AO2
PAKF 241446Z AUTO 19008G17KT 10SM SCT009 BKN013 OVC024 07/06 A3005 RMK AO2
PAKF 241435Z AUTO 18010G19KT 10SM BKN009 OVC015 07/06 A3005 RMK AO2 CIG 007V012
PAKF 241424Z AUTO 18013G18KT 10SM FEW008 BKN015 OVC021 07/06 A3006 RMK AO2
PAKF 241356Z AUTO 18008G15KT 10SM FEW017 BKN028 OVC110 08/05 A3006 RMK AO2 SLP179 T00780050
PAKF 241256Z AUTO 19009G16KT 10SM BKN018 OVC029 08/05 A3008 RMK AO2 SLP185 T00780050
PAKF 241216Z AUTO 19010KT 10SM BKN016 OVC027 08/06 A3008 RMK AO2
PAKF 241156Z AUTO 18012KT 10SM BKN014 BKN025 08/06 A3008 RMK AO2 SLP185 60000 T00780056 10089 20078 58009
PAKF 241140Z AUTO 20010KT 10SM BKN014 OVC022 08/06 A3008 RMK AO2
PAKF 241056Z AUTO 18012G17KT 10SM FEW008 BKN016 OVC024 08/06 A3009 RMK AO2 SLP190 T00780061
PAKF 240956Z AUTO 18007KT 8SM BKN016 OVC023 08/07 A3010 RMK AO2 RAB21E32 SLP194 P0000 T00780067
PAKF 240856Z AUTO 18011KT 9SM SCT016 BKN024 OVC028 08/06 A3011 RMK AO2 SLP195 T00830061 401110056 57003
PAKF 240852Z AUTO 19009KT 10SM SCT012 SCT021 OVC028 08/06 A3011 RMK AO2 401110056
PAKF 240756Z AUTO 17008KT 10SM OVC012 08/06 A3011 RMK AO2 SLP197 T00830061
PAKF 240656Z AUTO 17005KT 10SM BKN011 OVC038 08/07 A3011 RMK AO2 SLP197 T00830067
PAKF 240635Z AUTO 18007KT 10SM FEW020 OVC038 09/06 A3011 RMK AO2
PAKF 240556Z AUTO 17009KT 10SM BKN018 BKN023 OVC038 09/07 A3011 RMK AO2 SLP196 60000 T00890067 10111 20089 52001
PAKF 240456Z AUTO 18010KT 10SM SCT015 BKN022 OVC043 09/07 A3011 RMK AO2 SLP196 T00940067
PAKF 240424Z AUTO 17010KT 10SM BKN028 OVC044 10/07 A3010 RMK AO2
PAKF 240356Z AUTO 15012G16KT 10SM FEW030 OVC044 10/07 A3011 RMK AO2 SLP195 T01000067
PAKF 240256Z AUTO 17010G16KT 10SM SCT033 OVC042 11/07 A3011 RMK AO2 SLP195 60000 T01110067 58002
PAKF 240206Z AUTO 18010G14KT 10SM SCT020 BKN030 OVC044 11/07 A3011 RMK AO2
PAKF 240156Z AUTO 15014G17KT 10SM BKN020 OVC044 11/07 A3011 RMK AO2 SLP196 T01060072
PAKF 240056Z AUTO 19007KT 10SM BKN018 OVC023 11/07 A3011 RMK AO2 RAE03 SLP196 P0000 T01060072
PAKF 232356Z AUTO 16010G16KT 9SM -RA SCT014 OVC021 10/07 A3011 RMK AO2 RAB51 SLP197 P0000 60000 T01000072 10100 20078 50001
PAKF 232330Z AUTO 14012G18KT 10SM BKN014 OVC022 09/07 A3011 RMK AO2
PAKF 232256Z AUTO 14013KT 10SM FEW013 OVC020 09/07 A3011 RMK AO2 SLP198 T00940072
PAKF 232217Z AUTO 13008KT 10SM BKN015 OVC022 09/07 A3011 RMK AO2
PAKF 232156Z AUTO 14007KT 10SM BKN013 BKN021 OVC029 09/07 A3011 RMK AO2 SLP196 T00890072
PAKF 232133Z AUTO 15008KT 10SM SCT009 BKN015 OVC029 08/07 A3011 RMK AO2
PAKF 232113Z AUTO 17012G16KT 9SM BKN009 OVC015 08/07 A3011 RMK AO2 CIG 006V012
PAKF 232056Z AUTO 17011G16KT 150V220 8SM OVC011 08/07 A3011 RMK AO2 SLP195 60000 T00830067 53002
PAKF 232018Z AUTO 17009G19KT 10SM OVC013 09/06 A3010 RMK AO2
PAKF 231956Z AUTO 18009G16KT 10SM BKN015 OVC020 08/06 A3010 RMK AO2 RAE1859 SLP193 P0000 T00830056
PAKF 231951Z AUTO 19011G17KT 10SM BKN015 OVC022 08/06 A3010 RMK AO2 RAE1859 P0000
PAKF 231856Z AUTO 17006G15KT 9SM -RA BKN011 OVC016 08/06 A3010 RMK AO2 RAB49 SLP193 P0000 T00780061
PAKF 231850Z AUTO VRB06G15KT 4SM -RA BR BKN009 OVC014 08/06 A3010 RMK AO2 RAB49 P0000
PAKF 231828Z AUTO 18008KT 9SM BKN014 OVC020 08/06 A3010 RMK AO2
PAKF 231815Z AUTO VRB06KT 10SM BKN016 OVC023 08/06 A3010 RMK AO2